< < Back
Terminal Aerodrome Forecast


Current Version              Previous Versions:   1  2  3  4  5  6  7  8  9  

Terminal Aerodrome Forecast

095
FTUS42 KCAE 241100
TAFCAE
TAF
KCAE 241131Z 2412/2512 07005KT P6SM SKC
     FM241300 08012G18KT P6SM SKC
     FM242000 12008KT P6SM BKN045
     FM250900 13004KT P6SM BKN015=



Latest METAR

180
SAUS80 KWBC 241100 CCA
MTRCAE
METAR KCAE 241056Z 08004KT 10SM CLR 13/01 A3005 RMK AO2 SLP175
T01280011


USA.gov is the U.S. government's official web portal to all federal, state and local government web resources and services.